sensor_id;sensor_type;location;lat;lon;timestamp;pressure;altitude;pressure_sealevel;temperature;humidity
53546;BME280;39432;51.902;10.844;2024-01-30T00:00:43;100749.22;;;6.58;100.00
53546;BME280;39432;51.902;10.844;2024-01-30T00:03:13;100740.91;;;6.67;100.00
53546;BME280;39432;51.902;10.844;2024-01-30T00:05:46;100742.00;;;6.79;100.00
53546;BME280;39432;51.902;10.844;2024-01-30T00:08:16;100739.47;;;6.71;100.00
53546;BME280;39432;51.902;10.844;2024-01-30T00:10:46;100733.25;;;4.44;100.00
53546;BME280;39432;51.902;10.844;2024-01-30T00:13:16;100733.03;;;4.10;100.00
53546;BME280;39432;51.902;10.844;2024-01-30T00:15:47;100736.91;;;5.87;100.00
53546;BME280;39432;51.902;10.844;2024-01-30T00:18:17;100728.13;;;5.07;100.00
53546;BME280;39432;51.902;10.844;2024-01-30T00:20:49;100735.75;;;5.68;100.00
53546;BME280;39432;51.902;10.844;2024-01-30T00:23:19;100735.31;;;6.27;100.00
53546;BME280;39432;51.902;10.844;2024-01-30T00:25:50;100733.97;;;4.68;100.00
53546;BME280;39432;51.902;10.844;2024-01-30T00:28:20;100728.22;;;5.70;100.00
53546;BME280;39432;51.902;10.844;2024-01-30T00:30:50;100737.81;;;4.59;100.00
53546;BME280;39432;51.902;10.844;2024-01-30T00:33:20;100748.84;;;5.36;100.00
53546;BME280;39432;51.902;10.844;2024-01-30T00:35:52;100736.47;;;5.83;100.00
53546;BME280;39432;51.902;10.844;2024-01-30T00:38:22;100743.63;;;5.63;100.00
53546;BME280;39432;51.902;10.844;2024-01-30T00:40:52;100741.72;;;5.57;100.00
53546;BME280;39432;51.902;10.844;2024-01-30T00:43:22;100731.91;;;6.18;100.00
53546;BME280;39432;51.902;10.844;2024-01-30T00:45:52;100727.16;;;5.92;100.00
53546;BME280;39432;51.902;10.844;2024-01-30T00:48:22;100725.13;;;5.45;100.00
53546;BME280;39432;51.902;10.844;2024-01-30T00:50:55;100724.78;;;6.11;100.00
53546;BME280;39432;51.902;10.844;2024-01-30T00:53:24;100725.47;;;4.92;100.00
53546;BME280;39432;51.902;10.844;2024-01-30T00:55:54;100727.13;;;4.21;100.00
53546;BME280;39432;51.902;10.844;2024-01-30T00:58:24;100725.84;;;5.11;100.00
53546;BME280;39432;51.902;10.844;2024-01-30T01:00:55;100727.94;;;5.09;100.00
53546;BME280;39432;51.902;10.844;2024-01-30T01:03:25;100738.59;;;5.60;100.00
53546;BME280;39432;51.902;10.844;2024-01-30T01:05:57;100737.19;;;5.42;100.00
53546;BME280;39432;51.902;10.844;2024-01-30T01:08:27;100737.03;;;6.41;100.00
53546;BME280;39432;51.902;10.844;2024-01-30T01:10:57;100732.19;;;4.09;100.00
53546;BME280;39432;51.902;10.844;2024-01-30T01:13:27;100740.03;;;4.19;100.00
53546;BME280;39432;51.902;10.844;2024-01-30T01:15:57;100746.53;;;4.39;100.00
53546;BME280;39432;51.902;10.844;2024-01-30T01:18:27;100746.66;;;5.25;100.00
53546;BME280;39432;51.902;10.844;2024-01-30T01:21:00;100742.50;;;4.86;100.00
53546;BME280;39432;51.902;10.844;2024-01-30T01:23:30;100747.78;;;4.94;100.00
53546;BME280;39432;51.902;10.844;2024-01-30T01:25:59;100742.28;;;5.52;100.00
53546;BME280;39432;51.902;10.844;2024-01-30T01:28:29;100732.44;;;5.72;100.00
53546;BME280;39432;51.902;10.844;2024-01-30T01:30:59;100731.41;;;6.01;100.00
53546;BME280;39432;51.902;10.844;2024-01-30T01:33:33;100720.59;;;6.15;100.00
53546;BME280;39432;51.902;10.844;2024-01-30T01:36:07;100709.38;;;6.31;100.00
53546;BME280;39432;51.902;10.844;2024-01-30T01:38:37;100703.03;;;4.26;100.00
53546;BME280;39432;51.902;10.844;2024-01-30T01:41:07;100714.09;;;5.81;100.00
53546;BME280;39432;51.902;10.844;2024-01-30T01:43:37;100711.38;;;6.09;100.00
53546;BME280;39432;51.902;10.844;2024-01-30T01:46:08;100697.25;;;6.27;100.00
53546;BME280;39432;51.902;10.844;2024-01-30T01:48:38;100701.22;;;5.90;100.00
53546;BME280;39432;51.902;10.844;2024-01-30T01:51:12;100706.28;;;6.34;100.00
53546;BME280;39432;51.902;10.844;2024-01-30T01:53:43;100689.50;;;5.89;100.00
53546;BME280;39432;51.902;10.844;2024-01-30T01:56:13;100695.34;;;5.86;100.00
53546;BME280;39432;51.902;10.844;2024-01-30T01:58:44;100689.91;;;5.86;100.00
53546;BME280;39432;51.902;10.844;2024-01-30T02:01:16;100705.03;;;5.39;100.00
53546;BME280;39432;51.902;10.844;2024-01-30T02:03:48;100697.50;;;5.35;100.00
53546;BME280;39432;51.902;10.844;2024-01-30T02:06:21;100704.59;;;5.36;100.00
53546;BME280;39432;51.902;10.844;2024-01-30T02:08:51;100697.44;;;5.91;100.00
53546;BME280;39432;51.902;10.844;2024-01-30T02:11:22;100699.88;;;6.48;100.00
53546;BME280;39432;51.902;10.844;2024-01-30T02:13:52;100696.97;;;6.63;100.00
53546;BME280;39432;51.902;10.844;2024-01-30T02:16:22;100699.31;;;6.25;100.00
53546;BME280;39432;51.902;10.844;2024-01-30T02:18:52;100696.69;;;6.38;100.00
53546;BME280;39432;51.902;10.844;2024-01-30T02:21:26;100691.75;;;6.75;100.00
53546;BME280;39432;51.902;10.844;2024-01-30T02:23:57;100691.81;;;7.01;100.00
53546;BME280;39432;51.902;10.844;2024-01-30T02:26:28;100690.38;;;5.62;100.00
53546;BME280;39432;51.902;10.844;2024-01-30T02:28:58;100693.28;;;5.32;100.00
53546;BME280;39432;51.902;10.844;2024-01-30T02:31:27;100696.91;;;6.43;100.00
53546;BME280;39432;51.902;10.844;2024-01-30T02:33:58;100689.78;;;5.66;100.00
53546;BME280;39432;51.902;10.844;2024-01-30T02:36:30;100691.38;;;6.23;100.00
53546;BME280;39432;51.902;10.844;2024-01-30T02:39:00;100694.00;;;6.58;100.00
53546;BME280;39432;51.902;10.844;2024-01-30T02:41:30;100694.13;;;6.30;100.00
53546;BME280;39432;51.902;10.844;2024-01-30T02:44:00;100688.84;;;5.87;100.00
53546;BME280;39432;51.902;10.844;2024-01-30T02:46:30;100692.13;;;6.04;100.00
53546;BME280;39432;51.902;10.844;2024-01-30T02:49:00;100689.56;;;5.33;100.00
53546;BME280;39432;51.902;10.844;2024-01-30T02:51:32;100689.38;;;4.92;100.00
53546;BME280;39432;51.902;10.844;2024-01-30T02:54:02;100694.22;;;5.18;100.00
53546;BME280;39432;51.902;10.844;2024-01-30T02:56:32;100683.13;;;6.03;100.00
53546;BME280;39432;51.902;10.844;2024-01-30T02:59:02;100688.47;;;6.25;100.00
53546;BME280;39432;51.902;10.844;2024-01-30T03:01:32;100686.78;;;4.62;100.00
53546;BME280;39432;51.902;10.844;2024-01-30T03:04:02;100687.13;;;4.95;100.00
53546;BME280;39432;51.902;10.844;2024-01-30T03:06:34;100689.38;;;5.13;100.00
53546;BME280;39432;51.902;10.844;2024-01-30T03:09:04;100679.31;;;5.91;100.00
53546;BME280;39432;51.902;10.844;2024-01-30T03:11:36;100675.66;;;4.36;100.00
53546;BME280;39432;51.902;10.844;2024-01-30T03:14:03;100678.03;;;3.35;100.00
53546;BME280;39432;51.902;10.844;2024-01-30T03:16:33;100692.69;;;4.15;100.00
53546;BME280;39432;51.902;10.844;2024-01-30T03:19:03;100682.41;;;5.32;100.00
53546;BME280;39432;51.902;10.844;2024-01-30T03:21:37;100682.66;;;5.37;100.00
53546;BME280;39432;51.902;10.844;2024-01-30T03:24:07;100678.78;;;5.46;100.00
53546;BME280;39432;51.902;10.844;2024-01-30T03:26:37;100676.59;;;5.91;100.00
53546;BME280;39432;51.902;10.844;2024-01-30T03:29:07;100679.31;;;5.91;100.00
53546;BME280;39432;51.902;10.844;2024-01-30T03:31:37;100674.25;;;6.23;100.00
53546;BME280;39432;51.902;10.844;2024-01-30T03:34:07;100676.91;;;4.97;100.00
53546;BME280;39432;51.902;10.844;2024-01-30T03:36:39;100674.47;;;5.59;100.00
53546;BME280;39432;51.902;10.844;2024-01-30T03:39:09;100674.66;;;5.50;100.00
53546;BME280;39432;51.902;10.844;2024-01-30T03:41:41;100676.94;;;5.53;100.00
53546;BME280;39432;51.902;10.844;2024-01-30T03:44:11;100673.00;;;5.00;100.00
53546;BME280;39432;51.902;10.844;2024-01-30T03:46:41;100675.16;;;5.61;100.00
53546;BME280;39432;51.902;10.844;2024-01-30T03:49:11;100667.19;;;4.24;100.00
53546;BME280;39432;51.902;10.844;2024-01-30T03:51:44;100660.84;;;5.45;100.00
53546;BME280;39432;51.902;10.844;2024-01-30T03:54:15;100660.00;;;5.17;100.00
53546;BME280;39432;51.902;10.844;2024-01-30T03:56:45;100666.84;;;4.91;100.00
53546;BME280;39432;51.902;10.844;2024-01-30T03:59:15;100661.44;;;5.75;100.00
53546;BME280;39432;51.902;10.844;2024-01-30T04:01:49;100669.28;;;4.65;100.00
53546;BME280;39432;51.902;10.844;2024-01-30T04:04:19;100665.81;;;4.92;100.00
53546;BME280;39432;51.902;10.844;2024-01-30T04:06:52;100658.19;;;4.81;100.00
53546;BME280;39432;51.902;10.844;2024-01-30T04:09:22;100655.09;;;5.62;100.00
53546;BME280;39432;51.902;10.844;2024-01-30T04:11:53;100652.09;;;6.26;100.00
53546;BME280;39432;51.902;10.844;2024-01-30T04:14:23;100641.19;;;5.43;100.00
53546;BME280;39432;51.902;10.844;2024-01-30T04:16:53;100645.13;;;5.13;100.00
53546;BME280;39432;51.902;10.844;2024-01-30T04:19:23;100647.34;;;4.81;100.00
53546;BME280;39432;51.902;10.844;2024-01-30T04:21:55;100651.00;;;5.16;100.00
53546;BME280;39432;51.902;10.844;2024-01-30T04:24:25;100656.91;;;5.82;100.00
53546;BME280;39432;51.902;10.844;2024-01-30T04:26:55;100659.59;;;4.56;100.00
53546;BME280;39432;51.902;10.844;2024-01-30T04:29:25;100660.38;;;4.49;100.00
53546;BME280;39432;51.902;10.844;2024-01-30T04:31:54;100655.38;;;5.39;100.00
53546;BME280;39432;51.902;10.844;2024-01-30T04:34:24;100657.16;;;4.61;100.00
53546;BME280;39432;51.902;10.844;2024-01-30T04:36:57;100652.47;;;3.82;100.00
53546;BME280;39432;51.902;10.844;2024-01-30T04:39:27;100654.06;;;2.95;100.00
53546;BME280;39432;51.902;10.844;2024-01-30T04:41:57;100664.91;;;3.47;100.00
53546;BME280;39432;51.902;10.844;2024-01-30T04:44:26;100671.13;;;2.95;100.00
53546;BME280;39432;51.902;10.844;2024-01-30T04:46:56;100681.50;;;3.59;100.00
53546;BME280;39432;51.902;10.844;2024-01-30T04:49:28;100685.94;;;5.26;100.00
53546;BME280;39432;51.902;10.844;2024-01-30T04:52:01;100685.06;;;4.97;100.00
53546;BME280;39432;51.902;10.844;2024-01-30T04:54:31;100679.25;;;5.00;100.00
53546;BME280;39432;51.902;10.844;2024-01-30T04:57:01;100684.22;;;5.46;100.00
53546;BME280;39432;51.902;10.844;2024-01-30T04:59:32;100671.66;;;5.39;100.00
53546;BME280;39432;51.902;10.844;2024-01-30T05:02:02;100666.47;;;5.78;100.00
53546;BME280;39432;51.902;10.844;2024-01-30T05:04:32;100664.47;;;4.82;100.00
53546;BME280;39432;51.902;10.844;2024-01-30T05:07:05;100661.34;;;5.27;100.00
53546;BME280;39432;51.902;10.844;2024-01-30T05:09:35;100665.41;;;4.53;100.00
53546;BME280;39432;51.902;10.844;2024-01-30T05:12:05;100660.09;;;4.44;100.00
53546;BME280;39432;51.902;10.844;2024-01-30T05:14:35;100674.00;;;5.48;100.00
53546;BME280;39432;51.902;10.844;2024-01-30T05:17:04;100678.19;;;6.20;100.00
53546;BME280;39432;51.902;10.844;2024-01-30T05:19:34;100663.75;;;6.13;100.00
53546;BME280;39432;51.902;10.844;2024-01-30T05:22:07;100650.78;;;5.74;100.00
53546;BME280;39432;51.902;10.844;2024-01-30T05:24:37;100647.09;;;4.97;100.00
53546;BME280;39432;51.902;10.844;2024-01-30T05:27:07;100654.53;;;4.67;100.00
53546;BME280;39432;51.902;10.844;2024-01-30T05:29:37;100657.56;;;5.00;100.00
53546;BME280;39432;51.902;10.844;2024-01-30T05:32:07;100667.38;;;5.29;100.00
53546;BME280;39432;51.902;10.844;2024-01-30T05:34:37;100656.78;;;5.07;100.00
53546;BME280;39432;51.902;10.844;2024-01-30T05:37:10;100662.75;;;5.51;100.00
53546;BME280;39432;51.902;10.844;2024-01-30T05:39:44;100659.50;;;5.97;100.00
53546;BME280;39432;51.902;10.844;2024-01-30T05:42:14;100655.00;;;5.48;100.00
53546;BME280;39432;51.902;10.844;2024-01-30T05:44:44;100664.41;;;5.52;100.00
53546;BME280;39432;51.902;10.844;2024-01-30T05:47:14;100649.69;;;5.06;100.00
53546;BME280;39432;51.902;10.844;2024-01-30T05:49:44;100654.31;;;5.12;100.00
53546;BME280;39432;51.902;10.844;2024-01-30T05:52:16;100668.13;;;5.17;100.00
53546;BME280;39432;51.902;10.844;2024-01-30T05:54:46;100674.09;;;4.84;100.00
53546;BME280;39432;51.902;10.844;2024-01-30T05:57:16;100660.38;;;5.42;100.00
53546;BME280;39432;51.902;10.844;2024-01-30T05:59:46;100659.41;;;5.84;100.00
53546;BME280;39432;51.902;10.844;2024-01-30T06:02:15;100652.38;;;5.06;100.00
53546;BME280;39432;51.902;10.844;2024-01-30T06:04:46;100657.88;;;4.91;100.00
53546;BME280;39432;51.902;10.844;2024-01-30T06:07:19;100651.44;;;5.20;100.00
53546;BME280;39432;51.902;10.844;2024-01-30T06:09:49;100658.81;;;5.05;100.00
53546;BME280;39432;51.902;10.844;2024-01-30T06:12:19;100654.44;;;4.61;100.00
53546;BME280;39432;51.902;10.844;2024-01-30T06:14:48;100668.03;;;4.25;100.00
53546;BME280;39432;51.902;10.844;2024-01-30T06:17:21;100666.03;;;4.33;100.00
53546;BME280;39432;51.902;10.844;2024-01-30T06:19:51;100660.59;;;4.33;100.00
53546;BME280;39432;51.902;10.844;2024-01-30T06:22:23;100669.00;;;4.74;100.00
53546;BME280;39432;51.902;10.844;2024-01-30T06:24:53;100680.28;;;4.78;100.00
53546;BME280;39432;51.902;10.844;2024-01-30T06:27:23;100665.25;;;4.39;100.00
53546;BME280;39432;51.902;10.844;2024-01-30T06:29:53;100664.63;;;4.37;100.00
53546;BME280;39432;51.902;10.844;2024-01-30T06:32:23;100669.03;;;4.81;100.00
53546;BME280;39432;51.902;10.844;2024-01-30T06:34:54;100664.41;;;4.96;100.00
53546;BME280;39432;51.902;10.844;2024-01-30T06:37:27;100658.47;;;4.86;100.00
53546;BME280;39432;51.902;10.844;2024-01-30T06:39:56;100660.81;;;4.89;100.00
53546;BME280;39432;51.902;10.844;2024-01-30T06:42:26;100651.00;;;5.16;100.00
53546;BME280;39432;51.902;10.844;2024-01-30T06:44:56;100648.25;;;4.45;100.00
53546;BME280;39432;51.902;10.844;2024-01-30T06:47:26;100647.25;;;5.45;100.00
53546;BME280;39432;51.902;10.844;2024-01-30T06:49:58;100645.69;;;4.80;100.00
53546;BME280;39432;51.902;10.844;2024-01-30T06:52:32;100643.63;;;5.38;100.00
53546;BME280;39432;51.902;10.844;2024-01-30T06:55:02;100646.91;;;4.56;100.00
53546;BME280;39432;51.902;10.844;2024-01-30T06:57:32;100648.00;;;4.83;100.00
53546;BME280;39432;51.902;10.844;2024-01-30T07:00:02;100641.88;;;5.24;100.00
53546;BME280;39432;51.902;10.844;2024-01-30T07:02:32;100645.94;;;5.07;100.00
53546;BME280;39432;51.902;10.844;2024-01-30T07:05:02;100639.09;;;4.46;100.00
53546;BME280;39432;51.902;10.844;2024-01-30T07:07:35;100643.34;;;5.54;100.00
53546;BME280;39432;51.902;10.844;2024-01-30T07:10:07;100627.34;;;4.82;100.00
53546;BME280;39432;51.902;10.844;2024-01-30T07:12:37;100627.50;;;4.16;100.00
53546;BME280;39432;51.902;10.844;2024-01-30T07:15:07;100633.06;;;4.30;100.00
53546;BME280;39432;51.902;10.844;2024-01-30T07:17:37;100655.41;;;4.17;100.00
53546;BME280;39432;51.902;10.844;2024-01-30T07:20:08;100642.94;;;3.57;100.00
53546;BME280;39432;51.902;10.844;2024-01-30T07:22:46;100652.59;;;3.59;100.00
53546;BME280;39432;51.902;10.844;2024-01-30T07:25:16;100660.56;;;4.12;100.00
53546;BME280;39432;51.902;10.844;2024-01-30T07:27:46;100657.41;;;4.08;100.00
53546;BME280;39432;51.902;10.844;2024-01-30T07:30:16;100674.88;;;4.78;100.00
53546;BME280;39432;51.902;10.844;2024-01-30T07:32:46;100674.66;;;5.22;100.00
53546;BME280;39432;51.902;10.844;2024-01-30T07:35:16;100662.47;;;4.90;100.00
53546;BME280;39432;51.902;10.844;2024-01-30T07:37:48;100662.41;;;4.84;100.00
53546;BME280;39432;51.902;10.844;2024-01-30T07:40:18;100656.75;;;5.28;100.00
53546;BME280;39432;51.902;10.844;2024-01-30T07:42:48;100654.59;;;5.86;100.00
53546;BME280;39432;51.902;10.844;2024-01-30T07:45:19;100653.81;;;5.58;100.00
53546;BME280;39432;51.902;10.844;2024-01-30T07:47:51;100641.84;;;5.45;100.00
53546;BME280;39432;51.902;10.844;2024-01-30T07:50:21;100644.38;;;4.76;100.00
53546;BME280;39432;51.902;10.844;2024-01-30T07:52:55;100648.81;;;5.61;100.00
53546;BME280;39432;51.902;10.844;2024-01-30T07:55:26;100642.34;;;5.27;100.00
53546;BME280;39432;51.902;10.844;2024-01-30T07:57:59;100653.88;;;5.99;100.00
53546;BME280;39432;51.902;10.844;2024-01-30T08:00:28;100641.25;;;5.22;100.00
53546;BME280;39432;51.902;10.844;2024-01-30T08:02:58;100644.25;;;5.62;100.00
53546;BME280;39432;51.902;10.844;2024-01-30T08:05:28;100648.69;;;5.41;100.00
53546;BME280;39432;51.902;10.844;2024-01-30T08:08:01;100657.13;;;6.29;100.00
53546;BME280;39432;51.902;10.844;2024-01-30T08:10:31;100644.84;;;6.53;100.00
53546;BME280;39432;51.902;10.844;2024-01-30T08:13:01;100639.63;;;6.58;100.00
53546;BME280;39432;51.902;10.844;2024-01-30T08:15:31;100635.94;;;5.76;100.00
53546;BME280;39432;51.902;10.844;2024-01-30T08:18:00;100646.13;;;5.96;100.00
53546;BME280;39432;51.902;10.844;2024-01-30T08:20:31;100634.28;;;7.04;100.00
53546;BME280;39432;51.902;10.844;2024-01-30T08:23:04;100631.75;;;6.96;100.00
53546;BME280;39432;51.902;10.844;2024-01-30T08:25:34;100629.63;;;7.45;100.00
53546;BME280;39432;51.902;10.844;2024-01-30T08:28:04;100623.88;;;7.86;100.00
53546;BME280;39432;51.902;10.844;2024-01-30T08:30:34;100607.03;;;7.37;100.00
53546;BME280;39432;51.902;10.844;2024-01-30T08:33:06;100596.50;;;6.35;100.00
53546;BME280;39432;51.902;10.844;2024-01-30T08:35:35;100620.66;;;7.04;100.00
53546;BME280;39432;51.902;10.844;2024-01-30T08:38:08;100614.13;;;7.45;100.00
53546;BME280;39432;51.902;10.844;2024-01-30T08:40:39;100606.78;;;7.59;100.00
53546;BME280;39432;51.902;10.844;2024-01-30T08:43:09;100606.41;;;7.42;100.00
53546;BME280;39432;51.902;10.844;2024-01-30T08:45:39;100612.06;;;7.07;100.00
53546;BME280;39432;51.902;10.844;2024-01-30T08:48:10;100625.09;;;7.90;100.00
53546;BME280;39432;51.902;10.844;2024-01-30T08:50:40;100619.53;;;7.65;100.00
53546;BME280;39432;51.902;10.844;2024-01-30T08:53:12;100615.66;;;7.99;100.00
53546;BME280;39432;51.902;10.844;2024-01-30T08:55:42;100610.88;;;8.33;100.00
53546;BME280;39432;51.902;10.844;2024-01-30T08:58:12;100599.66;;;8.86;100.00
53546;BME280;39432;51.902;10.844;2024-01-30T09:00:42;100592.63;;;8.71;100.00
53546;BME280;39432;51.902;10.844;2024-01-30T09:03:12;100596.94;;;8.86;100.00
53546;BME280;39432;51.902;10.844;2024-01-30T09:05:42;100597.19;;;9.28;100.00
53546;BME280;39432;51.902;10.844;2024-01-30T09:08:14;100584.34;;;9.53;100.00
53546;BME280;39432;51.902;10.844;2024-01-30T09:10:44;100598.22;;;8.52;100.00
53546;BME280;39432;51.902;10.844;2024-01-30T09:13:15;100591.41;;;9.17;100.00
53546;BME280;39432;51.902;10.844;2024-01-30T09:15:45;100589.56;;;9.11;100.00
53546;BME280;39432;51.902;10.844;2024-01-30T09:18:15;100593.00;;;9.87;100.00
53546;BME280;39432;51.902;10.844;2024-01-30T09:20:45;100595.53;;;9.27;100.00
53546;BME280;39432;51.902;10.844;2024-01-30T09:23:17;100589.66;;;10.51;100.00
53546;BME280;39432;51.902;10.844;2024-01-30T09:25:47;100595.09;;;9.66;100.00
53546;BME280;39432;51.902;10.844;2024-01-30T09:28:17;100594.19;;;10.58;100.00
53546;BME280;39432;51.902;10.844;2024-01-30T09:30:50;100592.41;;;10.63;100.00
53546;BME280;39432;51.902;10.844;2024-01-30T09:33:20;100585.97;;;11.34;100.00
53546;BME280;39432;51.902;10.844;2024-01-30T09:35:50;100586.00;;;9.54;100.00
53546;BME280;39432;51.902;10.844;2024-01-30T09:38:23;100589.94;;;9.76;100.00
53546;BME280;39432;51.902;10.844;2024-01-30T09:40:54;100584.06;;;11.23;100.00
53546;BME280;39432;51.902;10.844;2024-01-30T09:43:25;100579.53;;;11.41;100.00
53546;BME280;39432;51.902;10.844;2024-01-30T09:45:59;100575.75;;;12.05;100.00
53546;BME280;39432;51.902;10.844;2024-01-30T09:48:33;100574.97;;;11.70;100.00
53546;BME280;39432;51.902;10.844;2024-01-30T09:51:04;100574.31;;;12.03;100.00
53546;BME280;39432;51.902;10.844;2024-01-30T09:53:41;100567.13;;;10.19;100.00
53546;BME280;39432;51.902;10.844;2024-01-30T09:56:12;100575.84;;;10.58;100.00
53546;BME280;39432;51.902;10.844;2024-01-30T09:58:42;100569.78;;;11.33;100.00
53546;BME280;39432;51.902;10.844;2024-01-30T10:01:12;100569.84;;;11.61;100.00
53546;BME280;39432;51.902;10.844;2024-01-30T10:03:46;100560.47;;;11.46;100.00
53546;BME280;39432;51.902;10.844;2024-01-30T10:06:16;100567.59;;;11.70;100.00
53546;BME280;39432;51.902;10.844;2024-01-30T10:08:50;100566.16;;;12.20;100.00
53546;BME280;39432;51.902;10.844;2024-01-30T10:11:20;100556.78;;;12.61;100.00
53546;BME280;39432;51.902;10.844;2024-01-30T10:13:53;100565.19;;;12.71;100.00
53546;BME280;39432;51.902;10.844;2024-01-30T10:16:23;100555.38;;;12.58;100.00
53546;BME280;39432;51.902;10.844;2024-01-30T10:18:53;100555.94;;;12.77;100.00
53546;BME280;39432;51.902;10.844;2024-01-30T10:21:23;100561.22;;;12.05;100.00
53546;BME280;39432;51.902;10.844;2024-01-30T10:23:56;100561.72;;;11.78;100.00
53546;BME280;39432;51.902;10.844;2024-01-30T10:26:26;100556.47;;;12.46;100.00
53546;BME280;39432;51.902;10.844;2024-01-30T10:29:00;100548.66;;;11.57;100.00
53546;BME280;39432;51.902;10.844;2024-01-30T10:31:29;100558.75;;;11.68;100.00
53546;BME280;39432;51.902;10.844;2024-01-30T10:34:00;100561.28;;;11.81;100.00
53546;BME280;39432;51.902;10.844;2024-01-30T10:36:46;100558.63;;;11.86;100.00
53546;BME280;39432;51.902;10.844;2024-01-30T10:39:20;100554.25;;;10.38;100.00
53546;BME280;39432;51.902;10.844;2024-01-30T10:41:56;100558.91;;;10.91;100.00
53546;BME280;39432;51.902;10.844;2024-01-30T10:44:26;100544.22;;;10.62;100.00
53546;BME280;39432;51.902;10.844;2024-01-30T10:47:03;100552.25;;;11.34;100.00
53546;BME280;39432;51.902;10.844;2024-01-30T10:49:36;100539.72;;;11.50;100.00
53546;BME280;39432;51.902;10.844;2024-01-30T10:52:08;100535.22;;;11.20;100.00
53546;BME280;39432;51.902;10.844;2024-01-30T10:54:44;100537.00;;;11.03;100.00
53546;BME280;39432;51.902;10.844;2024-01-30T10:57:15;100536.66;;;11.11;100.00
53546;BME280;39432;51.902;10.844;2024-01-30T10:59:46;100544.59;;;11.59;100.00
53546;BME280;39432;51.902;10.844;2024-01-30T11:02:17;100536.16;;;11.26;100.00
53546;BME280;39432;51.902;10.844;2024-01-30T11:04:47;100540.19;;;11.70;100.00
53546;BME280;39432;51.902;10.844;2024-01-30T11:07:18;100536.34;;;11.71;100.00
53546;BME280;39432;51.902;10.844;2024-01-30T11:09:52;100545.75;;;11.87;100.00
53546;BME280;39432;51.902;10.844;2024-01-30T11:12:23;100538.47;;;10.52;100.00
53546;BME280;39432;51.902;10.844;2024-01-30T11:15:02;100543.31;;;11.15;100.00
53546;BME280;39432;51.902;10.844;2024-01-30T11:17:44;100542.16;;;11.98;100.00
53546;BME280;39432;51.902;10.844;2024-01-30T11:20:15;100528.13;;;12.57;100.00
53546;BME280;39432;51.902;10.844;2024-01-30T11:22:49;100520.38;;;12.37;100.00
53546;BME280;39432;51.902;10.844;2024-01-30T11:25:23;100513.97;;;12.31;100.00
53546;BME280;39432;51.902;10.844;2024-01-30T11:27:55;100505.09;;;11.08;100.00
53546;BME280;39432;51.902;10.844;2024-01-30T11:30:26;100516.66;;;10.99;100.00
53546;BME280;39432;51.902;10.844;2024-01-30T11:33:00;100515.41;;;11.65;100.00
53546;BME280;39432;51.902;10.844;2024-01-30T11:35:34;100513.75;;;12.04;100.00
53546;BME280;39432;51.902;10.844;2024-01-30T11:38:05;100502.09;;;11.33;100.00
53546;BME280;39432;51.902;10.844;2024-01-30T11:40:38;100506.72;;;11.97;100.00
53546;BME280;39432;51.902;10.844;2024-01-30T11:43:09;100501.50;;;12.40;100.00
53546;BME280;39432;51.902;10.844;2024-01-30T11:45:39;100503.44;;;12.11;100.00
53546;BME280;39432;51.902;10.844;2024-01-30T11:48:11;100508.03;;;11.42;100.00
53546;BME280;39432;51.902;10.844;2024-01-30T11:50:41;100519.28;;;11.69;100.00
53546;BME280;39432;51.902;10.844;2024-01-30T11:53:12;100499.31;;;11.57;100.00
53546;BME280;39432;51.902;10.844;2024-01-30T11:55:49;100505.97;;;12.30;100.00
53546;BME280;39432;51.902;10.844;2024-01-30T11:58:20;100499.63;;;12.12;100.00
53546;BME280;39432;51.902;10.844;2024-01-30T12:00:54;100501.38;;;12.47;100.00
53546;BME280;39432;51.902;10.844;2024-01-30T12:03:25;100497.44;;;12.60;100.00
53546;BME280;39432;51.902;10.844;2024-01-30T12:05:55;100508.03;;;11.54;100.00
53546;BME280;39432;51.902;10.844;2024-01-30T12:08:27;100509.91;;;12.05;100.00
53546;BME280;39432;51.902;10.844;2024-01-30T12:10:59;100502.13;;;11.74;100.00
53546;BME280;39432;51.902;10.844;2024-01-30T12:13:32;100500.41;;;11.96;100.00
53546;BME280;39432;51.902;10.844;2024-01-30T12:16:03;100491.44;;;12.01;100.00
53546;BME280;39432;51.902;10.844;2024-01-30T12:18:33;100477.34;;;12.09;100.00
53546;BME280;39432;51.902;10.844;2024-01-30T12:21:03;100472.63;;;13.05;100.00
53546;BME280;39432;51.902;10.844;2024-01-30T12:23:35;100464.84;;;13.36;100.00
53546;BME280;39432;51.902;10.844;2024-01-30T12:26:07;100460.81;;;13.43;100.00
53546;BME280;39432;51.902;10.844;2024-01-30T12:28:47;100464.09;;;13.24;100.00
53546;BME280;39432;51.902;10.844;2024-01-30T12:31:17;100465.34;;;13.16;100.00
53546;BME280;39432;51.902;10.844;2024-01-30T12:33:49;100461.88;;;13.04;100.00
53546;BME280;39432;51.902;10.844;2024-01-30T12:36:19;100461.94;;;13.91;100.00
53546;BME280;39432;51.902;10.844;2024-01-30T12:38:49;100471.69;;;14.04;100.00
53546;BME280;39432;51.902;10.844;2024-01-30T12:41:22;100467.09;;;14.69;100.00
53546;BME280;39432;51.902;10.844;2024-01-30T12:43:56;100465.41;;;14.36;100.00
53546;BME280;39432;51.902;10.844;2024-01-30T12:46:28;100465.06;;;14.32;100.00
53546;BME280;39432;51.902;10.844;2024-01-30T12:48:58;100478.31;;;13.81;100.00
53546;BME280;39432;51.902;10.844;2024-01-30T12:51:28;100487.13;;;13.83;100.00
53546;BME280;39432;51.902;10.844;2024-01-30T12:53:58;100480.72;;;14.00;100.00
53546;BME280;39432;51.902;10.844;2024-01-30T12:56:31;100481.41;;;13.63;100.00